createdAt,value
2023-05-18T00:00:35.590Z,101540.52
2023-05-18T00:03:21.882Z,101539.67
2023-05-18T00:05:50.560Z,101531.00
2023-05-18T00:08:19.160Z,101524.92
2023-05-18T00:10:47.812Z,101523.02
2023-05-18T00:13:16.100Z,101525.11
2023-05-18T00:15:44.581Z,101527.90
2023-05-18T00:18:12.794Z,101535.39
2023-05-18T00:20:41.541Z,101533.30
2023-05-18T00:23:16.518Z,101535.41
2023-05-18T00:25:45.071Z,101533.00
2023-05-18T00:28:13.532Z,101533.55
2023-05-18T00:30:41.810Z,101534.81
2023-05-18T00:33:10.140Z,101536.08
2023-05-18T00:35:38.464Z,101526.91
2023-05-18T00:38:06.681Z,101529.92
2023-05-18T00:40:35.114Z,101532.20
2023-05-18T00:43:03.388Z,101535.38
2023-05-18T00:45:31.895Z,101542.20
2023-05-18T00:48:00.482Z,101543.24
2023-05-18T00:50:29.032Z,101546.39
2023-05-18T00:52:57.313Z,101543.46
2023-05-18T00:55:28.095Z,101549.02
2023-05-18T00:57:57.644Z,101549.05
2023-05-18T01:00:26.638Z,101547.83
2023-05-18T01:02:55.006Z,101552.52
2023-05-18T01:05:23.496Z,101552.16
2023-05-18T01:07:51.876Z,101555.77
2023-05-18T01:10:20.976Z,101560.80
2023-05-18T01:12:51.902Z,101566.85
2023-05-18T01:15:34.714Z,101570.15
2023-05-18T01:18:15.479Z,101567.88
2023-05-18T01:20:46.196Z,101570.96
2023-05-18T01:23:36.405Z,101572.52
2023-05-18T01:26:15.634Z,101574.59
2023-05-18T01:28:46.776Z,101574.90
2023-05-18T01:31:16.611Z,101577.30
2023-05-18T01:33:45.384Z,101575.90
2023-05-18T01:36:13.753Z,101576.59
2023-05-18T01:38:44.223Z,101577.09
2023-05-18T01:41:15.732Z,101584.35
2023-05-18T01:44:21.378Z,101589.00
2023-05-18T01:47:12.485Z,101591.75
2023-05-18T01:49:45.991Z,101586.54
2023-05-18T01:52:19.711Z,101590.65
2023-05-18T01:54:55.366Z,101591.47
2023-05-18T01:57:24.941Z,101590.24
2023-05-18T01:59:54.747Z,101591.44
2023-05-18T02:02:23.154Z,101590.02
2023-05-18T02:04:54.472Z,101589.65
2023-05-18T02:07:22.669Z,101595.48
2023-05-18T02:09:51.247Z,101592.89
2023-05-18T02:12:19.400Z,101593.25
2023-05-18T02:14:47.879Z,101594.48
2023-05-18T02:17:18.102Z,101598.13
2023-05-18T02:19:46.370Z,101599.50
2023-05-18T02:22:14.549Z,101596.39
2023-05-18T02:24:42.922Z,101598.98
2023-05-18T02:27:11.100Z,101599.30
2023-05-18T02:29:39.279Z,101602.59
2023-05-18T02:32:08.778Z,101598.95
2023-05-18T02:34:38.577Z,101601.89
2023-05-18T02:37:06.747Z,101597.91
2023-05-18T02:39:35.125Z,101600.86
2023-05-18T02:42:03.606Z,101599.30
2023-05-18T02:44:32.085Z,101599.13
2023-05-18T02:47:00.259Z,101600.86
2023-05-18T02:49:28.755Z,101603.11
2023-05-18T02:51:57.026Z,101608.48
2023-05-18T02:54:25.289Z,101610.55
2023-05-18T02:56:57.145Z,101610.89
2023-05-18T02:59:37.835Z,101614.86
2023-05-18T03:02:06.533Z,101617.44
2023-05-18T03:04:35.181Z,101618.84
2023-05-18T03:07:03.671Z,101620.05
2023-05-18T03:09:32.052Z,101622.11
2023-05-18T03:12:01.542Z,101623.84
2023-05-18T03:14:30.440Z,101628.52
2023-05-18T03:16:59.321Z,101629.55
2023-05-18T03:19:28.326Z,101636.13
2023-05-18T03:21:58.168Z,101634.21
2023-05-18T03:24:30.555Z,101634.38
2023-05-18T03:27:01.349Z,101634.91
2023-05-18T03:29:31.408Z,101631.98
2023-05-18T03:32:00.538Z,101633.75
2023-05-18T03:34:28.818Z,101636.55
2023-05-18T03:36:58.420Z,101639.86
2023-05-18T03:39:26.595Z,101636.08
2023-05-18T03:41:54.986Z,101641.45
2023-05-18T03:44:23.353Z,101637.67
2023-05-18T03:46:51.723Z,101637.37
2023-05-18T03:49:20.100Z,101633.44
2023-05-18T03:51:48.378Z,101634.51
2023-05-18T03:54:17.064Z,101636.13
2023-05-18T03:56:47.290Z,101640.49
2023-05-18T03:59:15.572Z,101641.92
2023-05-18T04:01:44.712Z,101641.80
2023-05-18T04:04:18.361Z,101646.52
2023-05-18T04:06:47.238Z,101648.64
2023-05-18T04:09:17.564Z,101648.13
2023-05-18T04:11:46.147Z,101648.84
2023-05-18T04:14:14.529Z,101653.20
2023-05-18T04:16:43.236Z,101658.59
2023-05-18T04:19:11.729Z,101665.38
2023-05-18T04:21:43.783Z,101670.23
2023-05-18T04:24:14.788Z,101669.55
2023-05-18T04:26:43.477Z,101672.17
2023-05-18T04:29:13.668Z,101671.52
2023-05-18T04:31:43.015Z,101668.94
2023-05-18T04:34:13.464Z,101671.36
2023-05-18T04:36:43.021Z,101673.43
2023-05-18T04:39:12.465Z,101670.10
2023-05-18T04:41:42.484Z,101674.59
2023-05-18T04:44:10.926Z,101675.81
2023-05-18T04:46:41.037Z,101670.61
2023-05-18T04:49:11.977Z,101676.00
2023-05-18T04:51:42.308Z,101677.21
2023-05-18T04:54:10.582Z,101682.07
2023-05-18T04:56:39.051Z,101686.92
2023-05-18T04:59:11.074Z,101690.42
2023-05-18T05:01:39.575Z,101691.83
2023-05-18T05:04:08.183Z,101694.45
2023-05-18T05:06:37.274Z,101698.27
2023-05-18T05:09:05.704Z,101697.60
2023-05-18T05:11:35.041Z,101698.66
2023-05-18T05:14:03.532Z,101696.23
2023-05-18T05:16:32.604Z,101695.71
2023-05-18T05:19:01.321Z,101694.16
2023-05-18T05:21:30.091Z,101692.78
2023-05-18T05:23:58.567Z,101690.52
2023-05-18T05:26:28.479Z,101688.11
2023-05-18T05:28:57.881Z,101688.79
2023-05-18T05:31:26.502Z,101692.59
2023-05-18T05:33:54.837Z,101694.30
2023-05-18T05:36:23.417Z,101690.59
2023-05-18T05:38:51.696Z,101688.96
2023-05-18T05:41:20.278Z,101682.80
2023-05-18T05:43:48.451Z,101682.21
2023-05-18T05:46:17.673Z,101681.59
2023-05-18T05:48:46.128Z,101680.11
2023-05-18T05:51:14.299Z,101685.77
2023-05-18T05:53:43.800Z,101690.22
2023-05-18T05:56:12.284Z,101686.29
2023-05-18T05:58:43.029Z,101688.60
2023-05-18T06:01:11.497Z,101689.52
2023-05-18T06:03:40.477Z,101693.52
2023-05-18T06:06:09.478Z,101691.62
2023-05-18T06:08:37.684Z,101694.45
2023-05-18T06:11:06.126Z,101694.75
2023-05-18T06:13:34.608Z,101695.42
2023-05-18T06:16:03.693Z,101701.08
2023-05-18T06:18:32.392Z,101698.19
2023-05-18T06:21:04.652Z,101700.38
2023-05-18T06:23:33.648Z,101699.98
2023-05-18T06:26:04.684Z,101703.40
2023-05-18T06:28:33.066Z,101704.38
2023-05-18T06:31:09.546Z,101704.64
2023-05-18T06:33:48.363Z,101705.39
2023-05-18T06:36:17.450Z,101708.23
2023-05-18T06:38:46.139Z,101705.14
2023-05-18T06:41:14.511Z,101705.71
2023-05-18T06:43:42.885Z,101712.96
2023-05-18T06:46:25.006Z,101711.80
2023-05-18T06:48:57.260Z,101710.78
2023-05-18T06:51:25.938Z,101714.41
2023-05-18T06:53:56.264Z,101712.75
2023-05-18T06:56:24.545Z,101708.61
2023-05-18T06:58:53.424Z,101711.06
2023-05-18T07:01:21.722Z,101706.14
2023-05-18T07:03:50.672Z,101711.45
2023-05-18T07:06:18.968Z,101716.05
2023-05-18T07:08:48.066Z,101716.41
2023-05-18T07:11:16.437Z,101714.91
2023-05-18T07:13:44.613Z,101712.92
2023-05-18T07:16:12.866Z,101716.69
2023-05-18T07:18:42.722Z,101714.94
2023-05-18T07:21:11.846Z,101714.73
2023-05-18T07:23:40.187Z,101718.86
2023-05-18T07:26:11.207Z,101712.71
2023-05-18T07:28:39.480Z,101714.14
2023-05-18T07:31:07.721Z,101714.00
2023-05-18T07:33:36.132Z,101713.74
2023-05-18T07:36:04.920Z,101708.36
2023-05-18T07:38:33.191Z,101710.11
2023-05-18T07:41:01.474Z,101709.52
2023-05-18T07:43:29.857Z,101711.95
2023-05-18T07:45:58.185Z,101718.21
2023-05-18T07:48:26.607Z,101717.79
2023-05-18T07:50:54.983Z,101717.39
2023-05-18T07:53:23.229Z,101715.36
2023-05-18T07:55:52.036Z,101717.70
2023-05-18T07:58:20.212Z,101719.33
2023-05-18T08:00:48.495Z,101718.40
2023-05-18T08:03:17.026Z,101717.70
2023-05-18T08:05:45.288Z,101718.45
2023-05-18T08:08:15.564Z,101713.42
2023-05-18T08:10:43.736Z,101712.33
2023-05-18T08:13:12.008Z,101713.13
2023-05-18T08:15:43.459Z,101714.34
2023-05-18T08:18:11.883Z,101710.52
2023-05-18T08:20:40.417Z,101709.58
2023-05-18T08:23:08.697Z,101706.30
2023-05-18T08:25:37.075Z,101705.42
2023-05-18T08:28:05.239Z,101705.29
2023-05-18T08:30:33.513Z,101704.04
2023-05-18T08:33:02.291Z,101702.73
2023-05-18T08:35:30.896Z,101699.20
2023-05-18T08:37:59.361Z,101693.48
2023-05-18T08:40:33.555Z,101695.00
2023-05-18T08:43:14.048Z,101698.25
2023-05-18T08:45:51.095Z,101695.82
2023-05-18T08:48:20.183Z,101696.45
2023-05-18T08:50:49.918Z,101694.80
2023-05-18T08:53:18.918Z,101695.71
2023-05-18T08:55:49.234Z,101696.61
2023-05-18T08:58:20.170Z,101694.30
2023-05-18T09:00:54.084Z,101692.89
2023-05-18T09:03:22.465Z,101691.43
2023-05-18T09:05:52.467Z,101689.69
2023-05-18T09:08:21.047Z,101690.33
2023-05-18T09:10:50.669Z,101688.00
2023-05-18T09:13:21.410Z,101682.99
2023-05-18T09:15:51.585Z,101686.98
2023-05-18T09:18:22.006Z,101684.09
2023-05-18T09:20:52.266Z,101683.46
2023-05-18T09:23:20.936Z,101688.11
2023-05-18T09:25:52.537Z,101685.73
2023-05-18T09:28:33.356Z,101690.37
2023-05-18T09:31:01.844Z,101685.79
2023-05-18T09:33:37.330Z,101686.17
2023-05-18T09:36:07.295Z,101688.05
2023-05-18T09:38:48.373Z,101688.16
2023-05-18T09:41:17.781Z,101682.48
2023-05-18T09:43:48.623Z,101681.59
2023-05-18T09:46:18.236Z,101678.25
2023-05-18T09:48:48.271Z,101681.82
2023-05-18T09:51:18.250Z,101687.01
2023-05-18T09:53:50.203Z,101687.70
2023-05-18T09:56:18.599Z,101683.27
2023-05-18T09:58:47.369Z,101679.08
2023-05-18T10:01:15.901Z,101679.36
2023-05-18T10:03:45.878Z,101680.04
2023-05-18T10:06:14.356Z,101679.97
2023-05-18T10:08:42.724Z,101680.35
2023-05-18T10:11:11.511Z,101676.90
2023-05-18T10:13:42.757Z,101674.10
2023-05-18T10:16:11.259Z,101671.30
2023-05-18T10:18:40.037Z,101670.66
2023-05-18T10:21:08.601Z,101669.88
2023-05-18T10:23:37.591Z,101674.83
2023-05-18T10:26:07.713Z,101677.66
2023-05-18T10:28:43.873Z,101673.92
2023-05-18T10:31:12.696Z,101668.34
2023-05-18T10:33:41.981Z,101668.27
2023-05-18T10:36:10.946Z,101664.84
2023-05-18T10:38:40.740Z,101673.66
2023-05-18T10:41:10.364Z,101675.23
2023-05-18T10:43:38.848Z,101672.41
2023-05-18T10:46:08.545Z,101671.38
2023-05-18T10:48:38.610Z,101669.10
2023-05-18T10:51:07.465Z,101667.21
2023-05-18T10:53:36.793Z,101662.41
2023-05-18T10:56:05.954Z,101664.48
2023-05-18T10:58:35.868Z,101662.41
2023-05-18T11:01:06.610Z,101664.66
2023-05-18T11:03:35.176Z,101663.24
2023-05-18T11:06:10.546Z,101665.02
2023-05-18T11:08:51.808Z,101658.98
2023-05-18T11:11:24.497Z,101656.93
2023-05-18T11:13:52.858Z,101655.08
2023-05-18T11:16:21.489Z,101652.38
2023-05-18T11:18:52.045Z,101653.77
2023-05-18T11:21:36.478Z,101652.25
2023-05-18T11:24:16.180Z,101653.16
2023-05-18T11:26:55.196Z,101653.39
2023-05-18T11:29:40.891Z,101653.36
2023-05-18T11:32:30.477Z,101647.73
2023-05-18T11:34:59.967Z,101644.13
2023-05-18T11:37:40.304Z,101643.02
2023-05-18T11:40:44.928Z,101648.17
2023-05-18T11:43:23.249Z,101648.63
2023-05-18T11:45:58.889Z,101640.75
2023-05-18T11:48:31.830Z,101640.31
2023-05-18T11:51:00.357Z,101638.41
2023-05-18T11:53:30.468Z,101640.23
2023-05-18T11:55:59.773Z,101638.83
2023-05-18T11:58:30.805Z,101640.36
2023-05-18T12:01:00.225Z,101641.73
2023-05-18T12:03:30.114Z,101644.70
2023-05-18T12:06:00.850Z,101640.06
2023-05-18T12:08:29.908Z,101638.59
2023-05-18T12:10:58.628Z,101638.19
2023-05-18T12:13:27.992Z,101631.77
2023-05-18T12:15:58.870Z,101630.08
2023-05-18T12:18:29.821Z,101626.23
2023-05-18T12:20:58.122Z,101623.90
2023-05-18T12:23:37.748Z,101620.39
2023-05-18T12:26:07.574Z,101623.94
2023-05-18T12:28:36.846Z,101623.56
2023-05-18T12:31:07.618Z,101621.39
2023-05-18T12:33:36.040Z,101619.58
2023-05-18T12:36:04.523Z,101615.82
2023-05-18T12:38:34.575Z,101614.18
2023-05-18T12:41:02.823Z,101610.52
2023-05-18T12:43:37.553Z,101607.02
2023-05-18T12:46:06.267Z,101600.13
2023-05-18T12:48:47.013Z,101603.14
2023-05-18T12:51:21.234Z,101604.38
2023-05-18T12:53:50.602Z,101599.40
2023-05-18T12:56:19.078Z,101596.73
2023-05-18T12:59:00.783Z,101594.81
2023-05-18T13:01:29.278Z,101593.37
2023-05-18T13:03:58.998Z,101592.19
2023-05-18T13:06:27.538Z,101592.33
2023-05-18T13:08:56.531Z,101594.89
2023-05-18T13:11:28.705Z,101591.95
2023-05-18T13:14:00.569Z,101584.73
2023-05-18T13:16:30.686Z,101587.29
2023-05-18T13:19:01.640Z,101579.41
2023-05-18T13:21:30.128Z,101574.30
2023-05-18T13:23:58.671Z,101576.34
2023-05-18T13:26:26.949Z,101575.74
2023-05-18T13:28:56.675Z,101572.67
2023-05-18T13:31:25.479Z,101570.26
2023-05-18T13:33:53.820Z,101573.08
2023-05-18T13:36:22.396Z,101567.05
2023-05-18T13:38:52.515Z,101570.64
2023-05-18T13:41:21.509Z,101565.75
2023-05-18T13:43:49.885Z,101562.73
2023-05-18T13:46:19.088Z,101565.30
2023-05-18T13:48:47.503Z,101562.75
2023-05-18T13:51:16.400Z,101562.48
2023-05-18T13:53:44.726Z,101558.88
2023-05-18T13:56:13.322Z,101562.48
2023-05-18T13:58:42.204Z,101555.92
2023-05-18T14:01:13.430Z,101550.39
2023-05-18T14:03:42.150Z,101553.02
2023-05-18T14:06:10.711Z,101552.26
2023-05-18T14:08:39.090Z,101545.26
2023-05-18T14:11:07.359Z,101539.67
2023-05-18T14:13:35.530Z,101538.90
2023-05-18T14:16:03.840Z,101530.86
2023-05-18T14:18:32.081Z,101535.11
2023-05-18T14:21:02.506Z,101530.50
2023-05-18T14:23:30.807Z,101534.02
2023-05-18T14:25:59.070Z,101530.94
2023-05-18T14:28:27.330Z,101530.04
2023-05-18T14:30:55.537Z,101525.86
2023-05-18T14:33:23.878Z,101522.80
2023-05-18T14:35:52.152Z,101518.97
2023-05-18T14:38:20.427Z,101521.09
2023-05-18T14:40:48.702Z,101530.06
2023-05-18T14:43:17.189Z,101528.70
2023-05-18T14:45:50.625Z,101530.98
2023-05-18T14:48:21.836Z,101527.28
2023-05-18T14:50:50.196Z,101530.39
2023-05-18T14:53:18.574Z,101526.17
2023-05-18T14:55:47.257Z,101521.31
2023-05-18T14:58:15.636Z,101521.14
2023-05-18T15:00:44.527Z,101520.73
2023-05-18T15:03:12.795Z,101525.05
2023-05-18T15:05:41.791Z,101525.48
2023-05-18T15:08:10.065Z,101526.30
2023-05-18T15:10:38.341Z,101522.86
2023-05-18T15:13:06.931Z,101521.30
2023-05-18T15:15:35.511Z,101517.66
2023-05-18T15:18:04.008Z,101519.50
2023-05-18T15:20:32.665Z,101517.13
2023-05-18T15:23:01.146Z,101519.09
2023-05-18T15:25:30.291Z,101526.50
2023-05-18T15:27:58.619Z,101526.05
2023-05-18T15:30:29.150Z,101525.47
2023-05-18T15:32:57.932Z,101524.98
2023-05-18T15:35:26.317Z,101526.61
2023-05-18T15:37:54.690Z,101523.98
2023-05-18T15:40:22.991Z,101526.20
2023-05-18T15:42:51.236Z,101523.63
2023-05-18T15:45:19.516Z,101524.29
2023-05-18T15:47:47.814Z,101523.73
2023-05-18T15:50:16.162Z,101516.93
2023-05-18T15:52:44.754Z,101522.25
2023-05-18T15:55:13.861Z,101521.77
2023-05-18T15:57:42.319Z,101522.49
2023-05-18T16:00:11.209Z,101524.33
2023-05-18T16:02:42.507Z,101521.19
2023-05-18T16:05:11.036Z,101524.45
2023-05-18T16:07:41.360Z,101528.43
2023-05-18T16:10:09.740Z,101526.49
2023-05-18T16:12:37.914Z,101519.81
2023-05-18T16:15:06.706Z,101520.41
2023-05-18T16:17:35.097Z,101525.61
2023-05-18T16:20:04.123Z,101527.27
2023-05-18T16:22:32.774Z,101531.44
2023-05-18T16:25:01.023Z,101529.67
2023-05-18T16:27:29.300Z,101527.77
2023-05-18T16:29:57.470Z,101527.76
2023-05-18T16:32:27.849Z,101531.04
2023-05-18T16:34:56.476Z,101531.41
2023-05-18T16:37:24.751Z,101531.92
2023-05-18T16:39:52.935Z,101530.69
2023-05-18T16:42:22.651Z,101530.06
2023-05-18T16:44:50.805Z,101528.14
2023-05-18T16:47:18.977Z,101532.63
2023-05-18T16:49:47.353Z,101533.01
2023-05-18T16:52:18.501Z,101539.39
2023-05-18T16:54:46.663Z,101535.92
2023-05-18T16:57:15.452Z,101538.23
2023-05-18T16:59:43.625Z,101537.68
2023-05-18T17:02:14.278Z,101540.84
2023-05-18T17:04:46.077Z,101535.63
2023-05-18T17:07:14.493Z,101537.50
2023-05-18T17:09:43.379Z,101536.84
2023-05-18T17:12:12.336Z,101536.55
2023-05-18T17:14:40.652Z,101537.80
2023-05-18T17:17:09.048Z,101535.23
2023-05-18T17:19:39.142Z,101536.56
2023-05-18T17:22:09.770Z,101533.63
2023-05-18T17:24:38.060Z,101534.91
2023-05-18T17:27:06.525Z,101538.55
2023-05-18T17:29:34.691Z,101538.84
2023-05-18T17:32:03.346Z,101538.23
2023-05-18T17:34:31.764Z,101537.92
2023-05-18T17:37:00.236Z,101540.15
2023-05-18T17:39:28.509Z,101543.96
2023-05-18T17:41:57.839Z,101544.70
2023-05-18T17:44:26.809Z,101547.84
2023-05-18T17:46:55.183Z,101544.22
2023-05-18T17:49:23.754Z,101546.27
2023-05-18T17:51:52.672Z,101548.12
2023-05-18T17:54:21.128Z,101549.69
2023-05-18T17:56:49.516Z,101548.79
2023-05-18T17:59:17.990Z,101548.64
2023-05-18T18:01:46.634Z,101549.23
2023-05-18T18:04:15.137Z,101551.83
2023-05-18T18:06:43.625Z,101551.61
2023-05-18T18:09:12.010Z,101552.94
2023-05-18T18:11:40.488Z,101555.41
2023-05-18T18:14:08.765Z,101554.15
2023-05-18T18:16:37.081Z,101557.77
2023-05-18T18:19:05.475Z,101558.38
2023-05-18T18:21:33.797Z,101557.75
2023-05-18T18:24:03.084Z,101558.87
2023-05-18T18:26:32.491Z,101562.78
2023-05-18T18:29:00.678Z,101560.77
2023-05-18T18:31:29.078Z,101560.58
2023-05-18T18:33:57.313Z,101564.52
2023-05-18T18:36:26.550Z,101566.11
2023-05-18T18:38:54.896Z,101568.02
2023-05-18T18:41:23.189Z,101568.16
2023-05-18T18:43:54.295Z,101571.87
2023-05-18T18:46:22.816Z,101574.26
2023-05-18T18:48:51.172Z,101577.33
2023-05-18T18:51:19.439Z,101579.33
2023-05-18T18:53:47.812Z,101578.89
2023-05-18T18:56:16.192Z,101577.26
2023-05-18T18:58:44.364Z,101580.13
2023-05-18T19:01:12.694Z,101580.83
2023-05-18T19:03:41.535Z,101584.31
2023-05-18T19:06:09.698Z,101587.61
2023-05-18T19:08:37.879Z,101595.19
2023-05-18T19:11:06.250Z,101598.91
2023-05-18T19:13:34.527Z,101603.04
2023-05-18T19:16:02.852Z,101605.19
2023-05-18T19:18:31.176Z,101610.11
2023-05-18T19:21:01.616Z,101610.52
2023-05-18T19:23:29.978Z,101613.54
2023-05-18T19:25:59.789Z,101612.50
2023-05-18T19:28:28.063Z,101613.90
2023-05-18T19:30:56.357Z,101617.20
2023-05-18T19:33:24.611Z,101616.10
2023-05-18T19:35:54.632Z,101619.73
2023-05-18T19:38:22.800Z,101615.34
2023-05-18T19:40:51.377Z,101623.13
2023-05-18T19:43:19.761Z,101621.48
2023-05-18T19:45:50.044Z,101621.21
2023-05-18T19:48:18.469Z,101623.42
2023-05-18T19:50:46.731Z,101619.89
2023-05-18T19:53:15.003Z,101622.45
2023-05-18T19:55:43.499Z,101620.79
2023-05-18T19:58:11.753Z,101620.02
2023-05-18T20:00:41.447Z,101626.54
2023-05-18T20:03:09.769Z,101633.05
2023-05-18T20:05:38.611Z,101630.48
2023-05-18T20:08:08.548Z,101634.35
2023-05-18T20:10:36.688Z,101637.52
2023-05-18T20:13:04.798Z,101641.40
2023-05-18T20:15:36.857Z,101643.52
2023-05-18T20:18:06.971Z,101647.04
2023-05-18T20:20:36.375Z,101647.27
2023-05-18T20:23:07.005Z,101647.33
2023-05-18T20:25:35.479Z,101650.16
2023-05-18T20:28:07.534Z,101649.15
2023-05-18T20:30:35.924Z,101653.90
2023-05-18T20:33:04.880Z,101657.42
2023-05-18T20:35:33.973Z,101658.32
2023-05-18T20:38:04.653Z,101658.52
2023-05-18T20:40:33.455Z,101660.98
2023-05-18T20:43:02.509Z,101663.77
2023-05-18T20:45:31.682Z,101664.33
2023-05-18T20:48:00.424Z,101661.58
2023-05-18T20:50:29.590Z,101662.29
2023-05-18T20:52:58.180Z,101660.73
2023-05-18T20:55:26.757Z,101660.20
2023-05-18T20:57:55.132Z,101656.20
2023-05-18T21:00:23.403Z,101659.65
2023-05-18T21:02:51.679Z,101661.08
2023-05-18T21:05:20.368Z,101663.18
2023-05-18T21:07:50.602Z,101664.23
2023-05-18T21:10:18.961Z,101663.38
2023-05-18T21:12:47.139Z,101664.10
2023-05-18T21:15:15.410Z,101663.61
2023-05-18T21:17:43.653Z,101664.31
2023-05-18T21:20:12.578Z,101661.71
2023-05-18T21:22:40.747Z,101664.16
2023-05-18T21:25:09.283Z,101663.48
2023-05-18T21:27:37.706Z,101662.45
2023-05-18T21:30:06.909Z,101664.02
2023-05-18T21:32:35.412Z,101662.64
2023-05-18T21:35:04.509Z,101666.65
2023-05-18T21:37:32.856Z,101667.92
2023-05-18T21:40:01.638Z,101666.17
2023-05-18T21:42:29.916Z,101670.91
2023-05-18T21:44:58.196Z,101669.38
2023-05-18T21:47:26.717Z,101672.36
2023-05-18T21:49:54.944Z,101670.98
2023-05-18T21:52:23.734Z,101676.21
2023-05-18T21:54:51.904Z,101668.57
2023-05-18T21:57:20.079Z,101673.98
2023-05-18T21:59:48.354Z,101674.87
2023-05-18T22:02:16.626Z,101674.19
2023-05-18T22:04:45.272Z,101671.59
2023-05-18T22:07:14.914Z,101669.52
2023-05-18T22:09:43.296Z,101669.38
2023-05-18T22:12:11.574Z,101671.64
2023-05-18T22:14:40.049Z,101670.26
2023-05-18T22:17:08.418Z,101671.64
2023-05-18T22:19:36.802Z,101672.00
2023-05-18T22:22:06.874Z,101669.56
2023-05-18T22:24:36.424Z,101668.70
2023-05-18T22:27:05.415Z,101668.20
2023-05-18T22:29:33.671Z,101669.42
2023-05-18T22:32:02.330Z,101669.63
2023-05-18T22:34:30.643Z,101669.46
2023-05-18T22:36:58.933Z,101667.20
2023-05-18T22:39:27.094Z,101668.06
2023-05-18T22:41:55.262Z,101664.06
2023-05-18T22:44:23.435Z,101663.71
2023-05-18T22:46:51.695Z,101660.93
2023-05-18T22:49:20.090Z,101657.98
2023-05-18T22:51:48.667Z,101656.24
2023-05-18T22:54:16.941Z,101655.03
2023-05-18T22:56:45.129Z,101654.35
2023-05-18T22:59:13.507Z,101654.19
2023-05-18T23:01:41.735Z,101655.27
2023-05-18T23:04:10.053Z,101653.17
2023-05-18T23:06:38.417Z,101659.27
2023-05-18T23:09:06.592Z,101657.35
2023-05-18T23:11:35.275Z,101657.17
2023-05-18T23:14:03.570Z,101654.21
2023-05-18T23:16:31.844Z,101653.17
2023-05-18T23:19:01.929Z,101651.80
2023-05-18T23:21:31.658Z,101649.70
2023-05-18T23:24:00.026Z,101647.98
2023-05-18T23:26:28.405Z,101640.85
2023-05-18T23:28:56.886Z,101639.83
2023-05-18T23:31:25.164Z,101640.86
2023-05-18T23:33:53.871Z,101640.67
2023-05-18T23:36:22.427Z,101636.86
2023-05-18T23:38:51.315Z,101637.90
2023-05-18T23:41:19.796Z,101634.77
2023-05-18T23:43:48.174Z,101631.12
2023-05-18T23:46:17.234Z,101628.69
2023-05-18T23:48:46.158Z,101629.75
2023-05-18T23:51:19.385Z,101633.23
2023-05-18T23:53:49.711Z,101634.81
2023-05-18T23:56:18.759Z,101635.67
2023-05-18T23:58:47.556Z,101636.92
